Terminal Aerodrome Forecast
Issued by NWS

Home | Current Version | Previous Version | Text Only | Print | Product List | Glossary On
Versions: 1 2 3 4 5 6 7 8 9 10 11 12 13 14 15 16 17 18 19 20 21
000
FTUS44 KCRP 201100
TAFLRD
TAF
KLRD 201127Z 2012/2112 05008KT P6SM FEW012
      TEMPO 2012/2015 BKN020
     FM201500 09010KT P6SM SCT025 BKN150
     FM201700 10012KT P6SM SCT035 BKN150 PROB30 2022/2102 SHRA
      BKN035
     FM210800 05005KT P6SM BKN015=

USA.gov is the U.S. government's official web portal to all federal, state and local government web resources and services.